Time;durP1;ratioP1;P1;durP2;ratioP2;P2;SDS_P1;SDS_P2;PMS_P1;PMS_P2;Temp;Humidity;BMP_temperature;BMP_pressure;BME280_temperature;BME280_humidity;BME280_pressure;Samples;Min_cycle;Max_cycle;Signal;HPM_P1;HPM_P2
2022/11/04 00:02:06;;;;;;;8.30;5.35;;;11.60;90.00;;;;;;5033580;28;20495;-61
2022/11/04 00:04:35;;;;;;;11.52;5.47;;;11.50;90.20;;;;;;5034276;28;20105;-61
2022/11/04 00:08:22;;;;;;;8.23;5.45;;;11.50;90.40;;;;;;5033305;28;20099;-57
2022/11/04 00:09:52;;;;;;;9.23;5.68;;;11.50;90.60;;;;;;5038333;28;20029;-54
2022/11/04 00:12:27;;;;;;;9.70;5.22;;;11.50;90.80;;;;;;5049441;28;20021;-53
2022/11/04 00:14:53;;;;;;;10.63;5.20;;;11.40;90.90;;;;;;5042874;28;20476;-51
2022/11/04 00:17:25;;;;;;;11.05;5.40;;;11.50;90.90;;;;;;5045871;28;20029;-49
2022/11/04 00:33:51;;;;;;;8.70;6.22;;;11.30;91.60;;;;;;5033671;28;20041;-48
2022/11/04 00:36:18;;;;;;;8.90;5.30;;;11.30;91.50;;;;;;5032409;28;20060;-48
2022/11/04 00:38:46;;;;;;;11.45;6.70;;;11.30;91.50;;;;;;5033403;28;20025;-48
2022/11/04 00:41:26;;;;;;;9.23;6.10;;;11.30;91.60;;;;;;5033340;28;20040;-48
2022/11/04 00:44:11;;;;;;;7.70;6.03;;;11.30;91.60;;;;;;5033286;28;20040;-49
2022/11/04 00:46:37;;;;;;;9.48;6.93;;;11.30;91.70;;;;;;5033173;28;20268;-50
2022/11/04 00:49:04;;;;;;;8.80;6.78;;;11.30;91.80;;;;;;5047299;28;20039;-49
2022/11/04 00:51:30;;;;;;;9.85;6.80;;;11.30;91.70;;;;;;5052722;28;20040;-49
2022/11/04 00:54:00;;;;;;;10.85;7.05;;;11.30;91.70;;;;;;5042210;28;20083;-51
2022/11/04 00:56:29;;;;;;;10.23;6.82;;;11.40;91.70;;;;;;5049630;28;20417;-49
2022/11/04 00:58:58;;;;;;;10.45;7.63;;;11.40;91.60;;;;;;5037893;28;20037;-49
2022/11/04 01:01:27;;;;;;;9.88;6.72;;;11.30;91.60;;;;;;5036964;28;20402;-50
2022/11/04 01:03:55;;;;;;;7.95;6.65;;;11.30;91.70;;;;;;5033236;28;20033;-48
2022/11/04 01:06:25;;;;;;;9.80;6.95;;;11.30;91.60;;;;;;5031728;28;20036;-48
2022/11/04 01:09:05;;;;;;;10.02;7.63;;;11.30;91.60;;;;;;5032337;28;20087;-48
2022/11/04 01:11:34;;;;;;;11.88;7.63;;;11.40;91.60;;;;;;5033129;28;20431;-48
2022/11/04 01:14:00;;;;;;;10.18;8.25;;;11.40;91.60;;;;;;5036270;28;20382;-48
2022/11/04 01:16:27;;;;;;;13.85;8.13;;;11.40;91.60;;;;;;5032981;28;20087;-48
2022/11/04 01:18:54;;;;;;;9.63;7.47;;;11.40;91.50;;;;;;5032088;28;20501;-49
2022/11/04 01:21:22;;;;;;;10.35;7.70;;;11.40;91.60;;;;;;5032080;28;20072;-47
2022/11/04 01:23:49;;;;;;;11.38;8.32;;;11.40;91.60;;;;;;5032069;28;20351;-49
2022/11/04 01:26:17;;;;;;;11.48;8.40;;;11.30;91.50;;;;;;5032062;28;20038;-47
2022/11/04 01:28:44;;;;;;;9.05;8.07;;;11.30;91.50;;;;;;5012482;28;20067;-49
2022/11/04 01:31:23;;;;;;;11.25;7.93;;;11.30;91.50;;;;;;5032021;28;20041;-49
2022/11/04 01:33:51;;;;;;;13.25;9.50;;;11.30;91.50;;;;;;5032287;28;20107;-47
2022/11/04 01:36:18;;;;;;;10.82;9.10;;;11.40;91.40;;;;;;5015539;28;20037;-47
2022/11/04 01:38:45;;;;;;;10.48;9.23;;;11.30;91.40;;;;;;5031923;28;20021;-47
2022/11/04 01:41:35;;;;;;;12.38;9.68;;;11.40;91.40;;;;;;5033474;28;20427;-49
2022/11/04 01:44:19;;;;;;;;;;;11.40;91.40;;;;;;5044509;28;20392;-49
2022/11/04 01:46:50;;;;;;;10.05;8.75;;;11.40;91.30;;;;;;5047948;28;19913;-47
2022/11/04 01:49:36;;;;;;;12.73;10.70;;;11.40;91.30;;;;;;5003197;28;20429;-47
2022/11/04 01:52:09;;;;;;;12.27;10.52;;;11.40;91.40;;;;;;5019198;28;20061;-47
2022/11/04 01:54:37;;;;;;;11.55;10.32;;;11.40;91.40;;;;;;5035428;28;20048;-46
2022/11/04 01:57:06;;;;;;;12.70;10.95;;;11.40;91.50;;;;;;5038874;28;20072;-46
2022/11/04 01:59:38;;;;;;;16.30;11.30;;;11.40;91.50;;;;;;5042979;28;20024;-46
2022/11/04 02:02:16;;;;;;;15.07;11.90;;;11.40;91.50;;;;;;5048810;28;20035;-46
2022/11/04 02:04:42;;;;;;;12.80;10.60;;;11.40;91.60;;;;;;5055649;28;20029;-47
2022/11/04 02:07:11;;;;;;;13.52;11.98;;;11.40;91.60;;;;;;5054491;28;20039;-46
2022/11/04 02:09:40;;;;;;;11.77;10.60;;;11.40;91.50;;;;;;5054957;28;20067;-46
2022/11/04 02:14:54;;;;;;;15.80;12.70;;;11.40;91.50;;;;;;5036284;28;20037;-47
2022/11/04 02:17:58;;;;;;;18.35;13.77;;;11.40;91.50;;;;;;5036769;28;20029;-48
2022/11/04 02:20:59;;;;;;;13.88;11.75;;;11.50;91.60;;;;;;5024878;28;20529;-48
2022/11/04 02:23:44;;;;;;;14.50;13.00;;;11.50;91.90;;;;;;5035336;28;20025;-52
2022/11/04 02:26:38;;;;;;;14.35;12.90;;;11.40;92.00;;;;;;5036788;28;20036;-48
2022/11/04 02:29:25;;;;;;;14.75;13.25;;;11.40;92.20;;;;;;5040681;28;20378;-48
2022/11/04 02:31:56;;;;;;;14.63;13.13;;;11.40;92.40;;;;;;5036909;28;20049;-47
2022/11/04 02:34:56;;;;;;;17.80;13.70;;;11.40;92.30;;;;;;5032893;28;20068;-50
2022/11/04 02:37:24;;;;;;;;;;;11.40;92.30;;;;;;5035302;28;20458;-50
2022/11/04 02:40:19;;;;;;;13.52;12.23;;;11.40;92.30;;;;;;5054593;28;19956;-47
2022/11/04 02:42:58;;;;;;;13.05;11.75;;;11.40;92.30;;;;;;5039003;28;20036;-47
2022/11/04 02:45:45;;;;;;;15.30;12.48;;;11.40;92.30;;;;;;5055918;28;20033;-48
2022/11/04 02:48:38;;;;;;;14.10;12.23;;;11.40;92.20;;;;;;5043158;28;20454;-50
2022/11/04 02:51:30;;;;;;;14.13;12.25;;;11.40;92.20;;;;;;5034734;28;20068;-48
2022/11/04 02:54:17;;;;;;;15.45;11.27;;;11.40;91.90;;;;;;5035686;28;20033;-55
2022/11/04 02:56:50;;;;;;;11.32;9.98;;;11.40;91.90;;;;;;5034118;28;20491;-52
2022/11/04 02:59:29;;;;;;;10.02;9.02;;;11.40;91.90;;;;;;5036355;28;20465;-62
2022/11/04 03:01:57;;;;;;;11.48;9.63;;;11.40;91.90;;;;;;5034682;28;20092;-61
2022/11/04 03:04:32;;;;;;;9.73;8.65;;;11.40;91.80;;;;;;5018348;28;20033;-58
2022/11/04 03:07:06;;;;;;;7.18;5.68;;;11.40;91.80;;;;;;5035150;28;20359;-55
2022/11/04 03:09:41;;;;;;;7.88;4.32;;;11.30;91.80;;;;;;5017584;28;20132;-52
2022/11/04 03:12:18;;;;;;;5.85;3.45;;;11.20;91.50;;;;;;5035540;28;20079;-50
2022/11/04 03:14:54;;;;;;;4.00;2.85;;;11.00;91.40;;;;;;5040274;28;20037;-48
2022/11/04 03:17:49;;;;;;;3.47;2.40;;;11.00;91.30;;;;;;5050868;28;20052;-48
2022/11/04 03:20:22;;;;;;;2.53;1.42;;;10.90;91.40;;;;;;5033795;28;20087;-48
2022/11/04 03:22:54;;;;;;;3.30;1.40;;;10.90;91.20;;;;;;5033737;28;20036;-51
2022/11/04 03:25:30;;;;;;;5.50;1.70;;;10.90;91.20;;;;;;5034024;28;20065;-48
2022/11/04 03:28:33;;;;;;;2.92;1.52;;;10.80;91.20;;;;;;5035180;28;20099;-49
2022/11/04 03:31:03;;;;;;;2.97;1.42;;;10.80;91.40;;;;;;5035058;28;20029;-48
2022/11/04 03:33:45;;;;;;;4.35;1.95;;;10.80;91.50;;;;;;5017994;28;20063;-48
2022/11/04 03:36:12;;;;;;;7.28;2.22;;;10.80;91.50;;;;;;5033899;28;20049;-49
2022/11/04 03:38:39;;;;;;;3.60;2.30;;;10.70;91.40;;;;;;5034628;28;20034;-48
2022/11/04 03:41:24;;;;;;;3.65;2.10;;;10.70;91.50;;;;;;5042776;28;20049;-47
2022/11/04 03:43:51;;;;;;;5.15;2.30;;;10.60;91.50;;;;;;5037612;28;20029;-51
2022/11/04 03:46:18;;;;;;;2.97;1.65;;;10.60;91.40;;;;;;5044137;28;20048;-49
2022/11/04 03:48:47;;;;;;;3.67;1.83;;;10.60;91.40;;;;;;5035303;28;20044;-48
2022/11/04 03:51:14;;;;;;;3.33;1.83;;;10.60;91.50;;;;;;5033553;28;20045;-47
2022/11/04 03:53:41;;;;;;;3.13;1.63;;;10.60;91.50;;;;;;5034683;28;20049;-49
2022/11/04 03:56:25;;;;;;;3.83;1.65;;;10.70;91.50;;;;;;5034773;28;20035;-47
2022/11/04 03:58:57;;;;;;;2.83;1.40;;;10.70;91.50;;;;;;5037237;28;20029;-51
2022/11/04 04:02:00;;;;;;;2.75;1.45;;;10.70;91.50;;;;;;5034544;28;20453;-50
2022/11/04 04:05:02;;;;;;;3.78;1.27;;;10.70;91.30;;;;;;5036815;28;20078;-48
2022/11/04 04:08:12;;;;;;;5.32;2.45;;;10.70;90.90;;;;;;5041223;28;20116;-49
2022/11/04 04:10:55;;;;;;;3.47;1.10;;;10.70;90.90;;;;;;5012173;28;20041;-48
2022/11/04 04:13:51;;;;;;;2.17;0.90;;;10.70;90.80;;;;;;5036177;28;20026;-48
2022/11/04 04:16:25;;;;;;;3.28;0.70;;;10.70;90.60;;;;;;5033208;28;20371;-47
2022/11/04 04:19:00;;;;;;;2.95;1.00;;;10.60;90.30;;;;;;5032842;28;20132;-48
2022/11/04 04:21:34;;;;;;;1.80;0.70;;;10.60;90.00;;;;;;5034279;28;20041;-46
2022/11/04 04:29:42;;;;;;;3.78;0.90;;;10.70;90.00;;;;;;5050189;28;20084;-47
2022/11/04 04:32:09;;;;;;;6.90;1.10;;;10.70;90.00;;;;;;5052904;28;20029;-48
2022/11/04 04:34:36;;;;;;;3.60;0.68;;;10.70;90.10;;;;;;5031600;28;20034;-46
2022/11/04 04:37:16;;;;;;;1.33;0.60;;;10.80;90.10;;;;;;5016509;28;20038;-46
2022/11/04 04:45:42;;;;;;;2.47;0.85;;;10.80;90.30;;;;;;5038785;28;20048;-48
2022/11/04 04:48:12;;;;;;;5.32;0.65;;;10.80;90.10;;;;;;5029669;28;20152;-46
2022/11/04 04:50:44;;;;;;;4.15;0.90;;;10.90;90.10;;;;;;5034473;28;20069;-46
2022/11/04 04:53:12;;;;;;;1.50;0.60;;;10.80;90.10;;;;;;5031484;28;20065;-46
2022/11/04 04:55:37;;;;;;;7.05;1.90;;;10.80;90.20;;;;;;5041634;28;20025;-48
2022/11/04 04:58:04;;;;;;;3.75;0.80;;;10.80;90.20;;;;;;5042593;28;20029;-45
2022/11/04 05:00:32;;;;;;;8.73;1.08;;;10.80;90.20;;;;;;5042162;28;20041;-46
2022/11/04 05:03:00;;;;;;;3.25;0.65;;;10.70;90.20;;;;;;5043329;28;20091;-46
2022/11/04 05:05:28;;;;;;;3.97;0.80;;;10.80;90.20;;;;;;5036263;28;20061;-47
2022/11/04 05:07:54;;;;;;;5.07;0.93;;;10.70;90.30;;;;;;5032091;28;20033;-47
2022/11/04 05:10:19;;;;;;;1.20;0.70;;;10.70;90.40;;;;;;5040421;28;20162;-48
2022/11/04 05:15:31;;;;;;;3.08;0.60;;;10.70;90.40;;;;;;5037659;28;20615;-49
2022/11/04 05:17:59;;;;;;;5.53;0.63;;;10.70;90.40;;;;;;5044033;28;20021;-46
2022/11/04 05:20:27;;;;;;;2.80;0.80;;;10.70;90.40;;;;;;5041255;28;20144;-47
2022/11/04 05:22:54;;;;;;;4.40;0.65;;;10.60;90.20;;;;;;5040810;28;20022;-47
2022/11/04 05:25:30;;;;;;;5.88;1.10;;;10.70;90.30;;;;;;5041792;28;20091;-46
2022/11/04 05:27:59;;;;;;;6.38;0.70;;;10.70;90.20;;;;;;5039072;28;20040;-47
2022/11/04 05:30:32;;;;;;;2.20;1.00;;;10.60;90.20;;;;;;5037019;28;20037;-47
2022/11/04 05:32:59;;;;;;;3.65;0.63;;;10.60;90.30;;;;;;5039772;28;20060;-48
2022/11/04 05:35:25;;;;;;;3.53;0.85;;;10.50;90.30;;;;;;5032986;28;20026;-46
2022/11/04 05:37:54;;;;;;;4.10;0.85;;;10.50;90.40;;;;;;5031806;28;20034;-46
2022/11/04 05:40:22;;;;;;;2.47;0.73;;;10.50;90.60;;;;;;5015283;28;20049;-47
2022/11/04 05:42:49;;;;;;;3.80;0.98;;;10.50;90.70;;;;;;5034600;28;20112;-46
2022/11/04 05:45:16;;;;;;;4.55;1.02;;;10.40;90.70;;;;;;5032704;28;20030;-46
2022/11/04 05:47:44;;;;;;;5.55;1.23;;;10.40;90.80;;;;;;5032601;28;20033;-46
2022/11/04 05:50:11;;;;;;;4.95;1.50;;;10.40;90.90;;;;;;5031564;28;20735;-46
2022/11/04 05:52:36;;;;;;;3.40;0.68;;;10.40;90.90;;;;;;5032280;28;20034;-46
2022/11/04 05:55:04;;;;;;;2.90;0.70;;;10.40;91.10;;;;;;5047801;28;20029;-46
2022/11/04 05:57:30;;;;;;;3.70;0.80;;;10.40;91.20;;;;;;5035503;28;20064;-47
2022/11/04 05:59:59;;;;;;;1.80;0.55;;;10.40;91.30;;;;;;5026897;28;20103;-47
2022/11/04 06:02:26;;;;;;;2.17;0.70;;;10.40;91.30;;;;;;5032958;28;20065;-46
2022/11/04 06:04:53;;;;;;;3.17;0.88;;;10.40;91.20;;;;;;5031828;28;20037;-47
2022/11/04 06:07:19;;;;;;;3.25;0.85;;;10.30;91.20;;;;;;5032734;28;20397;-47
2022/11/04 06:09:47;;;;;;;2.63;0.70;;;10.30;91.30;;;;;;5031376;28;20033;-48
2022/11/04 06:12:15;;;;;;;4.20;1.02;;;10.30;91.50;;;;;;5032157;28;20049;-48
2022/11/04 06:14:41;;;;;;;2.95;1.00;;;10.30;91.60;;;;;;5034207;28;20094;-54
2022/11/04 06:17:16;;;;;;;3.28;1.10;;;10.40;91.70;;;;;;4998952;28;20018;-53
2022/11/04 06:19:44;;;;;;;2.63;0.98;;;10.40;91.90;;;;;;5031685;28;20041;-52
2022/11/04 06:22:12;;;;;;;2.90;0.77;;;10.40;91.90;;;;;;5031678;28;20025;-49
2022/11/04 06:24:38;;;;;;;2.60;1.17;;;10.40;92.10;;;;;;5016663;28;20034;-57
2022/11/04 06:27:04;;;;;;;3.22;1.23;;;10.40;92.10;;;;;;5018392;28;20500;-64
2022/11/04 06:29:33;;;;;;;4.55;1.10;;;10.40;92.20;;;;;;5038355;28;20033;-60
2022/11/04 06:31:59;;;;;;;5.50;1.40;;;10.40;92.20;;;;;;5042645;28;20056;-60
2022/11/04 06:34:26;;;;;;;3.65;1.00;;;10.40;92.30;;;;;;5043779;28;20053;-61
2022/11/04 06:36:52;;;;;;;2.08;1.00;;;10.40;92.30;;;;;;5046266;28;20022;-55
2022/11/04 06:39:20;;;;;;;2.17;1.10;;;10.40;92.40;;;;;;5041800;28;20037;-52
2022/11/04 06:41:48;;;;;;;3.40;1.23;;;10.40;92.40;;;;;;5045500;28;20033;-49
2022/11/04 06:44:16;;;;;;;4.15;1.30;;;10.30;92.30;;;;;;5032516;28;20025;-49
2022/11/04 06:46:43;;;;;;;6.50;1.45;;;10.30;92.30;;;;;;5036059;28;20026;-50
2022/11/04 06:49:14;;;;;;;3.28;1.30;;;10.20;92.30;;;;;;5002587;28;20095;-53
2022/11/04 06:51:40;;;;;;;4.32;1.30;;;10.20;92.30;;;;;;5040182;28;20076;-49
2022/11/04 06:54:09;;;;;;;3.80;1.10;;;10.10;92.30;;;;;;5042806;28;20033;-49
2022/11/04 06:56:35;;;;;;;1.30;0.70;;;10.10;92.30;;;;;;5002978;28;20044;-49
2022/11/04 06:59:01;;;;;;;3.35;0.93;;;10.00;92.20;;;;;;5045890;28;20096;-48
2022/11/04 07:01:34;;;;;;;3.40;0.70;;;10.00;92.20;;;;;;5041392;28;20033;-48
2022/11/04 07:04:06;;;;;;;2.92;0.65;;;9.90;92.10;;;;;;5023235;28;20045;-48
2022/11/04 07:06:33;;;;;;;3.28;0.68;;;9.90;92.20;;;;;;5035483;28;20018;-48
2022/11/04 07:09:01;;;;;;;2.90;0.85;;;9.80;92.00;;;;;;5035272;28;20459;-48
2022/11/04 07:11:30;;;;;;;2.00;0.47;;;9.80;92.20;;;;;;5033887;28;20057;-49
2022/11/04 07:14:00;;;;;;;0.90;0.60;;;9.80;92.10;;;;;;5030576;28;20025;-49
2022/11/04 07:16:28;;;;;;;2.20;1.05;;;9.80;92.00;;;;;;5034391;28;20078;-48
2022/11/04 07:18:56;;;;;;;3.17;0.80;;;9.80;92.10;;;;;;5035140;28;20029;-48
2022/11/04 07:21:24;;;;;;;4.30;0.82;;;9.80;92.20;;;;;;5038728;28;20447;-49
2022/11/04 07:23:51;;;;;;;2.20;0.82;;;9.80;92.30;;;;;;5035029;28;20053;-47
2022/11/04 07:26:16;;;;;;;4.72;0.98;;;9.90;92.40;;;;;;5041885;28;20061;-48
2022/11/04 07:28:46;;;;;;;6.22;1.33;;;9.90;92.50;;;;;;5037886;28;20041;-49
2022/11/04 07:31:16;;;;;;;3.13;1.10;;;10.00;92.50;;;;;;5041126;28;20082;-47
2022/11/04 07:33:48;;;;;;;3.97;1.20;;;10.10;92.50;;;;;;5038350;28;20042;-47
2022/11/04 07:36:19;;;;;;;2.30;0.70;;;10.20;92.40;;;;;;5040466;28;20037;-49
2022/11/04 07:38:48;;;;;;;6.32;1.05;;;10.20;92.30;;;;;;5045136;28;20482;-48
2022/11/04 07:41:16;;;;;;;2.25;0.63;;;10.40;92.30;;;;;;5049536;28;20172;-49
2022/11/04 07:43:42;;;;;;;12.88;2.13;;;10.60;92.20;;;;;;5043789;28;20029;-48
2022/11/04 07:46:13;;;;;;;2.72;0.65;;;10.60;91.80;;;;;;5043119;28;20097;-49
2022/11/04 07:48:42;;;;;;;2.45;0.70;;;10.60;91.60;;;;;;5047533;28;20027;-51
2022/11/04 07:51:10;;;;;;;3.65;0.70;;;10.60;91.40;;;;;;5045612;28;20042;-48
2022/11/04 07:53:36;;;;;;;3.58;0.70;;;10.60;91.40;;;;;;5017443;28;20367;-49
2022/11/04 07:56:10;;;;;;;4.22;0.93;;;10.40;91.20;;;;;;5034025;28;20052;-50
2022/11/04 07:58:37;;;;;;;4.28;1.02;;;10.40;91.20;;;;;;5042352;28;20022;-49
2022/11/04 08:01:10;;;;;;;3.88;1.48;;;10.40;91.30;;;;;;5039551;28;20621;-48
2022/11/04 08:03:37;;;;;;;3.60;0.80;;;10.40;91.40;;;;;;5021963;28;20485;-48
2022/11/04 08:06:06;;;;;;;4.15;1.65;;;10.40;91.60;;;;;;5037540;28;20033;-49
2022/11/04 08:08:32;;;;;;;;;;;10.40;91.40;;;;;;5035183;28;20433;-48
2022/11/04 08:11:01;;;;;;;4.13;0.60;;;10.30;91.50;;;;;;5040279;28;20020;-47
2022/11/04 08:13:30;;;;;;;6.13;1.13;;;10.40;91.70;;;;;;5035960;28;20024;-48
2022/11/04 08:16:02;;;;;;;2.92;1.05;;;10.50;91.70;;;;;;5037401;28;20045;-47
2022/11/04 08:18:35;;;;;;;6.72;1.13;;;10.60;91.80;;;;;;5038073;28;20050;-48
2022/11/04 08:21:02;;;;;;;3.40;1.10;;;10.70;91.70;;;;;;5037048;28;20160;-47
2022/11/04 08:23:36;;;;;;;4.97;0.90;;;10.70;91.50;;;;;;5032709;28;20034;-47
2022/11/04 08:26:13;;;;;;;4.07;1.23;;;10.80;91.50;;;;;;5044654;28;20330;-47
2022/11/04 08:28:40;;;;;;;3.08;1.20;;;10.90;91.40;;;;;;5033667;28;20032;-49
2022/11/04 08:31:10;;;;;;;2.67;0.75;;;11.00;91.40;;;;;;5034241;28;20033;-47
2022/11/04 08:33:36;;;;;;;6.68;1.10;;;11.00;91.10;;;;;;5039218;28;20047;-46
2022/11/04 08:36:07;;;;;;;3.90;1.30;;;11.10;90.70;;;;;;5040257;28;20080;-48
2022/11/04 08:38:34;;;;;;;2.67;0.90;;;11.20;90.60;;;;;;5032610;28;20510;-48
2022/11/04 08:41:12;;;;;;;4.55;1.42;;;11.10;90.30;;;;;;5047181;28;20051;-47
2022/11/04 08:43:38;;;;;;;3.20;0.93;;;11.30;90.70;;;;;;5037867;28;20060;-48
2022/11/04 08:46:06;;;;;;;7.75;1.30;;;11.40;90.30;;;;;;5032985;28;20191;-48
2022/11/04 08:48:34;;;;;;;3.70;0.85;;;11.40;90.00;;;;;;5032636;28;20091;-47
2022/11/04 08:51:00;;;;;;;4.53;0.98;;;11.40;90.10;;;;;;5031954;28;20057;-47
2022/11/04 08:53:28;;;;;;;3.70;1.30;;;11.50;90.20;;;;;;5046294;28;20446;-48
2022/11/04 08:55:55;;;;;;;9.70;1.65;;;11.60;89.90;;;;;;5052667;28;20048;-48
2022/11/04 08:58:26;;;;;;;2.85;1.05;;;11.50;89.90;;;;;;5050354;28;20029;-47
2022/11/04 09:00:54;;;;;;;5.07;1.83;;;11.50;89.90;;;;;;5038720;28;20033;-47
2022/11/04 09:03:22;;;;;;;5.60;1.52;;;11.50;90.10;;;;;;5044784;28;20037;-47
2022/11/04 09:05:49;;;;;;;2.97;1.30;;;11.50;89.80;;;;;;5033382;28;20072;-47
2022/11/04 09:08:16;;;;;;;4.38;1.33;;;11.40;89.50;;;;;;5034861;28;20128;-47
2022/11/04 09:10:47;;;;;;;7.20;2.08;;;11.30;89.60;;;;;;5032831;28;20026;-46
2022/11/04 09:13:15;;;;;;;5.28;2.17;;;11.30;89.80;;;;;;5030434;28;20094;-49
2022/11/04 09:15:47;;;;;;;3.50;1.48;;;11.40;90.00;;;;;;5029215;28;20033;-47
2022/11/04 09:18:13;;;;;;;4.43;1.55;;;11.40;89.90;;;;;;5038168;28;20450;-46
2022/11/04 09:20:42;;;;;;;5.22;1.58;;;11.40;89.70;;;;;;5043175;28;20067;-49
2022/11/04 09:23:08;;;;;;;4.80;1.50;;;11.40;89.90;;;;;;5031815;28;20413;-46
2022/11/04 09:25:35;;;;;;;4.75;1.55;;;11.40;89.90;;;;;;5037190;28;20090;-46
2022/11/04 09:28:03;;;;;;;2.95;1.13;;;11.40;89.70;;;;;;5051716;28;20029;-46
2022/11/04 09:30:30;;;;;;;4.22;1.38;;;11.30;89.70;;;;;;5042590;28;20489;-46
2022/11/04 09:32:57;;;;;;;6.43;1.80;;;11.20;89.90;;;;;;5030711;28;20029;-46
2022/11/04 09:35:23;;;;;;;6.18;1.50;;;11.20;90.10;;;;;;5036342;28;20029;-46
2022/11/04 09:37:51;;;;;;;3.63;1.23;;;11.30;90.10;;;;;;5039083;28;20079;-48
2022/11/04 09:40:24;;;;;;;10.73;2.00;;;11.30;90.20;;;;;;5038132;28;20029;-46
2022/11/04 09:43:14;;;;;;;4.10;1.20;;;11.40;90.10;;;;;;5041248;28;20520;-47
2022/11/04 09:45:42;;;;;;;3.55;1.08;;;11.50;90.00;;;;;;5038980;28;20045;-47
2022/11/04 09:48:20;;;;;;;8.23;1.50;;;11.30;89.40;;;;;;5019199;28;20417;-46
2022/11/04 09:50:50;;;;;;;5.13;1.27;;;11.40;89.50;;;;;;5019000;28;20053;-46
2022/11/04 09:53:33;;;;;;;8.02;1.50;;;11.30;89.50;;;;;;5041778;28;20389;-45
2022/11/04 09:56:22;;;;;;;4.13;1.33;;;11.30;89.50;;;;;;5040626;28;20433;-46
2022/11/04 09:58:50;;;;;;;6.88;1.45;;;11.30;89.50;;;;;;5015167;28;20363;-45
2022/11/04 10:01:30;;;;;;;5.88;1.90;;;11.40;90.00;;;;;;5033511;28;20091;-45
2022/11/04 10:04:24;;;;;;;8.68;1.50;;;11.60;90.00;;;;;;5032079;28;20037;-46
2022/11/04 10:07:28;;;;;;;5.38;1.08;;;11.60;89.20;;;;;;5039516;28;20037;-45
2022/11/04 10:10:32;;;;;;;8.20;1.20;;;11.60;89.30;;;;;;5047418;28;20029;-45
2022/11/04 10:13:25;;;;;;;9.45;2.03;;;11.60;89.20;;;;;;5046668;28;20170;-46
2022/11/04 10:16:33;;;;;;;5.20;1.40;;;11.60;89.00;;;;;;5040443;28;20342;-45
2022/11/04 10:19:36;;;;;;;4.30;0.93;;;11.60;89.10;;;;;;5045739;28;20033;-47
2022/11/04 10:22:27;;;;;;;3.17;0.93;;;11.80;89.00;;;;;;5048867;28;20037;-45
2022/11/04 10:25:14;;;;;;;4.15;1.13;;;11.90;88.50;;;;;;5036457;28;20359;-46
2022/11/04 10:27:45;;;;;;;6.78;1.55;;;11.90;88.10;;;;;;5040466;28;20076;-45
2022/11/04 10:30:20;;;;;;;7.22;1.30;;;11.90;88.00;;;;;;5035468;28;20167;-46
2022/11/04 10:32:58;;;;;;;5.00;1.30;;;11.90;88.40;;;;;;5039473;28;20121;-46
2022/11/04 10:35:52;;;;;;;4.28;1.20;;;11.90;88.20;;;;;;5036367;28;20640;-47
2022/11/04 10:38:39;;;;;;;7.25;1.30;;;11.90;88.30;;;;;;5035947;28;20061;-45
2022/11/04 10:41:32;;;;;;;4.70;1.17;;;11.90;88.40;;;;;;5045808;28;20029;-46
2022/11/04 10:44:20;;;;;;;5.15;1.05;;;12.00;88.30;;;;;;5036302;28;20041;-46
2022/11/04 10:47:06;;;;;;;7.88;0.98;;;12.10;88.10;;;;;;5038548;28;20037;-46
2022/11/04 10:50:15;;;;;;;4.55;0.88;;;12.30;88.00;;;;;;5045959;28;20111;-47
2022/11/04 10:52:42;;;;;;;5.22;1.55;;;12.40;86.60;;;;;;5035456;28;20037;-47
2022/11/04 10:55:40;;;;;;;3.60;1.10;;;12.70;86.60;;;;;;5037858;28;20447;-47
2022/11/04 10:58:20;;;;;;;3.55;0.85;;;12.70;85.10;;;;;;5034451;28;20472;-49
2022/11/04 11:00:48;;;;;;;2.10;0.90;;;12.60;85.40;;;;;;5022743;28;20041;-47
2022/11/04 11:03:33;;;;;;;2.80;0.75;;;12.60;84.90;;;;;;5047321;28;20439;-47
2022/11/04 11:06:24;;;;;;;2.53;0.90;;;12.50;84.50;;;;;;5048614;28;20179;-47
2022/11/04 11:08:53;;;;;;;4.05;0.70;;;12.40;84.30;;;;;;5037479;28;20541;-47
2022/11/04 11:11:52;;;;;;;3.92;1.08;;;12.50;83.60;;;;;;5011309;28;20045;-48
2022/11/04 11:14:38;;;;;;;6.10;1.48;;;12.60;82.90;;;;;;5048171;28;20458;-47
2022/11/04 11:17:37;;;;;;;3.85;0.93;;;12.70;81.90;;;;;;5044538;28;20709;-46
2022/11/04 11:20:25;;;;;;;3.13;1.00;;;12.70;82.10;;;;;;5039138;28;20033;-45
2022/11/04 11:22:53;;;;;;;5.68;0.82;;;12.60;82.80;;;;;;5036366;28;20398;-47
2022/11/04 11:25:46;;;;;;;5.23;0.90;;;12.60;83.40;;;;;;5037488;28;20116;-48
2022/11/04 11:28:23;;;;;;;3.25;1.00;;;12.70;83.10;;;;;;5042531;28;20332;-48
2022/11/04 11:30:59;;;;;;;4.93;1.05;;;12.60;83.00;;;;;;5033898;28;20347;-46
2022/11/04 11:33:34;;;;;;;5.93;1.15;;;12.60;82.70;;;;;;5021063;28;20425;-48
2022/11/04 11:36:21;;;;;;;6.72;1.42;;;12.60;83.00;;;;;;5047209;28;20236;-47
2022/11/04 11:39:05;;;;;;;6.47;1.50;;;12.60;83.70;;;;;;5035218;28;20040;-46
2022/11/04 11:41:47;;;;;;;6.18;1.70;;;12.60;83.90;;;;;;5037297;28;20401;-46
2022/11/04 11:44:37;;;;;;;6.45;1.33;;;12.60;83.80;;;;;;5036111;28;20060;-47
2022/11/04 11:47:29;;;;;;;7.63;1.27;;;12.70;83.70;;;;;;5040914;28;20044;-46
2022/11/04 11:50:34;;;;;;;6.13;2.03;;;12.60;83.80;;;;;;5037693;28;20064;-49
2022/11/04 11:53:23;;;;;;;9.95;1.70;;;12.60;83.60;;;;;;5042769;28;20040;-46
2022/11/04 11:56:43;;;;;;;7.32;1.30;;;12.60;83.10;;;;;;5037914;28;20036;-50
2022/11/04 11:59:23;;;;;;;7.35;1.52;;;12.60;83.70;;;;;;5015993;28;20044;-49
2022/11/04 12:02:11;;;;;;;7.13;1.30;;;12.60;84.20;;;;;;5009772;28;20072;-46
2022/11/04 12:04:40;;;;;;;6.25;1.48;;;12.70;84.00;;;;;;5013463;28;20049;-48
2022/11/04 12:07:30;;;;;;;3.90;1.35;;;12.60;83.60;;;;;;5021881;28;20034;-50
2022/11/04 12:10:18;;;;;;;5.45;1.33;;;12.60;83.10;;;;;;5026429;28;20048;-46
2022/11/04 12:13:14;;;;;;;8.30;1.58;;;12.50;83.30;;;;;;5026153;28;20112;-46
2022/11/04 12:16:21;;;;;;;13.73;1.60;;;12.50;83.70;;;;;;5010173;28;20053;-46
2022/11/04 12:19:06;;;;;;;7.40;1.23;;;12.60;83.90;;;;;;5016008;28;20467;-50
2022/11/04 12:21:39;;;;;;;7.25;1.73;;;12.80;83.40;;;;;;5009732;28;20037;-46
2022/11/04 12:24:26;;;;;;;3.67;1.00;;;12.70;83.30;;;;;;5007276;28;20045;-46
2022/11/04 12:27:38;;;;;;;7.50;1.02;;;12.70;83.00;;;;;;5011031;28;20045;-46
2022/11/04 12:30:13;;;;;;;5.53;1.55;;;12.60;83.30;;;;;;4986750;28;20045;-46
2022/11/04 12:33:16;;;;;;;15.98;2.85;;;12.60;83.30;;;;;;4997005;28;20425;-46
2022/11/04 12:36:12;;;;;;;8.20;1.60;;;12.50;83.00;;;;;;5040257;28;20029;-47
2022/11/04 12:39:08;;;;;;;8.30;1.70;;;12.60;83.00;;;;;;5050047;28;20074;-48
2022/11/04 12:42:05;;;;;;;10.20;2.97;;;12.80;83.30;;;;;;5042377;28;20026;-46
2022/11/04 12:44:43;;;;;;;7.95;1.25;;;13.00;82.70;;;;;;5034191;28;20037;-49
2022/11/04 12:47:26;;;;;;;5.20;1.23;;;13.00;81.30;;;;;;5040254;28;20044;-48
2022/11/04 12:50:25;;;;;;;10.10;1.38;;;12.90;80.90;;;;;;5032416;28;20029;-47
2022/11/04 12:53:14;;;;;;;6.07;1.58;;;12.90;81.60;;;;;;5037120;28;20041;-46
2022/11/04 12:56:09;;;;;;;4.57;1.30;;;12.70;81.70;;;;;;5035724;28;20035;-47
2022/11/04 12:59:13;;;;;;;5.90;1.40;;;12.60;82.00;;;;;;5042266;28;20021;-47
2022/11/04 13:01:49;;;;;;;4.30;1.13;;;12.50;82.00;;;;;;5040153;28;20401;-46
2022/11/04 13:04:35;;;;;;;7.97;1.70;;;12.40;82.40;;;;;;5019404;28;20370;-49
2022/11/04 13:07:09;;;;;;;6.13;1.60;;;12.40;83.20;;;;;;5040266;28;20048;-46
2022/11/04 13:09:55;;;;;;;6.25;1.80;;;12.50;82.60;;;;;;5032521;28;20041;-48
2022/11/04 13:12:35;;;;;;;5.75;1.55;;;12.50;82.10;;;;;;5041070;28;20029;-46
2022/11/04 13:15:03;;;;;;;8.18;1.45;;;12.50;82.30;;;;;;5045778;28;20025;-46
2022/11/04 13:17:44;;;;;;;5.40;1.08;;;12.50;82.30;;;;;;5047142;28;20409;-46
2022/11/04 13:20:29;;;;;;;8.13;2.55;;;12.40;81.70;;;;;;5033547;28;20094;-46
2022/11/04 13:23:01;;;;;;;5.93;1.15;;;12.30;82.00;;;;;;5047245;28;20021;-47
2022/11/04 13:25:45;;;;;;;6.07;1.00;;;12.30;82.50;;;;;;5032577;28;20350;-46
2022/11/04 13:28:14;;;;;;;7.40;1.38;;;12.20;82.30;;;;;;5042106;28;20047;-48
2022/11/04 13:30:55;;;;;;;;;;;12.20;81.90;;;;;;5032597;28;20069;-50
2022/11/04 13:33:39;;;;;;;8.55;2.00;;;12.20;81.90;;;;;;5032330;28;19913;-46
2022/11/04 13:36:59;;;;;;;12.32;1.35;;;12.20;82.50;;;;;;5032687;28;20025;-48
2022/11/04 13:39:45;;;;;;;7.38;1.25;;;12.20;82.60;;;;;;5012321;28;20470;-46
2022/11/04 13:42:29;;;;;;;3.17;0.95;;;12.20;83.50;;;;;;4998858;28;20046;-46
2022/11/04 13:45:03;;;;;;;6.00;1.45;;;12.30;83.80;;;;;;5037653;28;20049;-45
2022/11/04 13:47:42;;;;;;;8.25;1.27;;;12.50;83.60;;;;;;5035458;28;20119;-47
2022/11/04 13:50:38;;;;;;;7.63;1.17;;;12.70;83.30;;;;;;5041445;28;20064;-48
2022/11/04 13:53:08;;;;;;;7.50;1.92;;;12.90;83.10;;;;;;5010871;28;20442;-46
2022/11/04 13:55:35;;;;;;;;;;;13.00;83.00;;;;;;5021959;28;20117;-45
2022/11/04 13:58:03;;;;;;;15.25;2.20;;;12.90;82.10;;;;;;5035479;28;20014;-46
2022/11/04 14:00:38;;;;;;;7.88;1.48;;;12.90;82.10;;;;;;5051435;28;20448;-47
2022/11/04 14:03:45;;;;;;;10.50;2.20;;;12.70;82.30;;;;;;5043350;28;20045;-46